sensor_id;sensor_type;location;lat;lon;timestamp;temperature;humidity
14142;DHT22;7151;52.246;4.820;2023-06-14T00:01:17;27.50;43.60
14142;DHT22;7151;52.246;4.820;2023-06-14T00:03:45;27.50;43.50
14142;DHT22;7151;52.246;4.820;2023-06-14T00:06:13;27.50;43.30
14142;DHT22;7151;52.246;4.820;2023-06-14T00:08:38;27.40;43.20
14142;DHT22;7151;52.246;4.820;2023-06-14T00:11:05;27.40;43.10
14142;DHT22;7151;52.246;4.820;2023-06-14T00:13:31;27.40;43.00
14142;DHT22;7151;52.246;4.820;2023-06-14T00:15:56;27.30;43.00
14142;DHT22;7151;52.246;4.820;2023-06-14T00:18:22;27.30;43.00
14142;DHT22;7151;52.246;4.820;2023-06-14T00:20:50;27.30;42.90
14142;DHT22;7151;52.246;4.820;2023-06-14T00:23:16;27.20;42.80
14142;DHT22;7151;52.246;4.820;2023-06-14T00:25:42;27.20;42.80
14142;DHT22;7151;52.246;4.820;2023-06-14T00:28:07;27.10;43.20
14142;DHT22;7151;52.246;4.820;2023-06-14T00:30:33;27.10;42.70
14142;DHT22;7151;52.246;4.820;2023-06-14T00:32:58;27.00;42.60
14142;DHT22;7151;52.246;4.820;2023-06-14T00:35:24;27.00;42.60
14142;DHT22;7151;52.246;4.820;2023-06-14T00:37:50;26.90;42.50
14142;DHT22;7151;52.246;4.820;2023-06-14T00:40:16;26.90;42.50
14142;DHT22;7151;52.246;4.820;2023-06-14T00:42:42;26.90;42.50
14142;DHT22;7151;52.246;4.820;2023-06-14T00:45:08;26.90;42.50
14142;DHT22;7151;52.246;4.820;2023-06-14T00:47:35;26.80;42.40
14142;DHT22;7151;52.246;4.820;2023-06-14T00:50:02;26.80;42.50
14142;DHT22;7151;52.246;4.820;2023-06-14T00:52:28;26.70;42.40
14142;DHT22;7151;52.246;4.820;2023-06-14T00:54:54;26.70;42.40
14142;DHT22;7151;52.246;4.820;2023-06-14T00:57:20;26.70;42.40
14142;DHT22;7151;52.246;4.820;2023-06-14T00:59:49;26.60;42.30
14142;DHT22;7151;52.246;4.820;2023-06-14T01:02:15;26.60;42.30
14142;DHT22;7151;52.246;4.820;2023-06-14T01:04:43;26.50;42.20
14142;DHT22;7151;52.246;4.820;2023-06-14T01:12:51;26.40;42.20
14142;DHT22;7151;52.246;4.820;2023-06-14T01:15:19;26.40;42.20
14142;DHT22;7151;52.246;4.820;2023-06-14T01:17:46;26.40;42.20
14142;DHT22;7151;52.246;4.820;2023-06-14T01:20:15;26.30;42.10
14142;DHT22;7151;52.246;4.820;2023-06-14T01:22:54;26.30;42.10
14142;DHT22;7151;52.246;4.820;2023-06-14T01:25:20;26.30;42.20
14142;DHT22;7151;52.246;4.820;2023-06-14T01:27:51;26.20;42.10
14142;DHT22;7151;52.246;4.820;2023-06-14T01:30:18;26.20;42.10
14142;DHT22;7151;52.246;4.820;2023-06-14T01:32:46;26.20;42.10
14142;DHT22;7151;52.246;4.820;2023-06-14T01:35:11;26.20;42.10
14142;DHT22;7151;52.246;4.820;2023-06-14T01:37:37;26.10;42.00
14142;DHT22;7151;52.246;4.820;2023-06-14T01:40:06;26.10;42.00
14142;DHT22;7151;52.246;4.820;2023-06-14T01:42:36;26.10;42.00
14142;DHT22;7151;52.246;4.820;2023-06-14T01:45:03;26.00;41.90
14142;DHT22;7151;52.246;4.820;2023-06-14T01:47:30;26.00;42.00
14142;DHT22;7151;52.246;4.820;2023-06-14T01:49:56;26.00;42.00
14142;DHT22;7151;52.246;4.820;2023-06-14T01:52:22;26.00;42.00
14142;DHT22;7151;52.246;4.820;2023-06-14T01:54:50;25.90;42.00
14142;DHT22;7151;52.246;4.820;2023-06-14T01:57:15;25.90;41.90
14142;DHT22;7151;52.246;4.820;2023-06-14T01:59:41;25.90;41.90
14142;DHT22;7151;52.246;4.820;2023-06-14T02:02:07;25.90;41.90
14142;DHT22;7151;52.246;4.820;2023-06-14T02:04:33;25.80;41.90
14142;DHT22;7151;52.246;4.820;2023-06-14T02:06:58;25.80;41.90
14142;DHT22;7151;52.246;4.820;2023-06-14T02:09:24;25.70;41.80
14142;DHT22;7151;52.246;4.820;2023-06-14T02:11:50;25.80;42.00
14142;DHT22;7151;52.246;4.820;2023-06-14T02:14:16;25.80;42.00
14142;DHT22;7151;52.246;4.820;2023-06-14T02:16:42;25.70;41.90
14142;DHT22;7151;52.246;4.820;2023-06-14T02:19:17;25.70;42.00
14142;DHT22;7151;52.246;4.820;2023-06-14T02:21:43;25.60;41.90
14142;DHT22;7151;52.246;4.820;2023-06-14T02:24:08;25.60;41.90
14142;DHT22;7151;52.246;4.820;2023-06-14T02:26:34;25.60;41.90
14142;DHT22;7151;52.246;4.820;2023-06-14T02:28:59;25.60;42.00
14142;DHT22;7151;52.246;4.820;2023-06-14T02:31:25;25.60;42.00
14142;DHT22;7151;52.246;4.820;2023-06-14T02:33:51;25.50;41.90
14142;DHT22;7151;52.246;4.820;2023-06-14T02:36:16;25.50;41.90
14142;DHT22;7151;52.246;4.820;2023-06-14T02:38:42;25.50;41.90
14142;DHT22;7151;52.246;4.820;2023-06-14T02:41:08;25.40;41.90
14142;DHT22;7151;52.246;4.820;2023-06-14T02:43:33;25.50;41.90
14142;DHT22;7151;52.246;4.820;2023-06-14T02:45:59;25.40;41.90
14142;DHT22;7151;52.246;4.820;2023-06-14T02:48:24;25.40;41.90
14142;DHT22;7151;52.246;4.820;2023-06-14T02:50:50;25.30;41.90
14142;DHT22;7151;52.246;4.820;2023-06-14T02:53:16;25.30;42.00
14142;DHT22;7151;52.246;4.820;2023-06-14T02:55:42;25.30;42.00
14142;DHT22;7151;52.246;4.820;2023-06-14T02:58:08;25.30;42.00
14142;DHT22;7151;52.246;4.820;2023-06-14T03:00:33;25.20;42.00
14142;DHT22;7151;52.246;4.820;2023-06-14T03:03:00;25.20;42.00
14142;DHT22;7151;52.246;4.820;2023-06-14T03:05:27;25.10;42.00
14142;DHT22;7151;52.246;4.820;2023-06-14T03:07:53;25.10;42.00
14142;DHT22;7151;52.246;4.820;2023-06-14T03:10:19;25.10;42.00
14142;DHT22;7151;52.246;4.820;2023-06-14T03:12:46;25.10;42.00
14142;DHT22;7151;52.246;4.820;2023-06-14T03:15:12;25.10;42.10
14142;DHT22;7151;52.246;4.820;2023-06-14T03:17:42;25.00;42.00
14142;DHT22;7151;52.246;4.820;2023-06-14T03:20:10;25.00;42.10
14142;DHT22;7151;52.246;4.820;2023-06-14T03:22:36;25.00;42.10
14142;DHT22;7151;52.246;4.820;2023-06-14T03:25:03;24.90;42.10
14142;DHT22;7151;52.246;4.820;2023-06-14T03:27:30;24.90;42.10
14142;DHT22;7151;52.246;4.820;2023-06-14T03:29:56;24.90;42.20
14142;DHT22;7151;52.246;4.820;2023-06-14T03:32:21;24.80;42.30
14142;DHT22;7151;52.246;4.820;2023-06-14T03:34:47;24.80;42.30
14142;DHT22;7151;52.246;4.820;2023-06-14T03:37:12;24.80;42.30
14142;DHT22;7151;52.246;4.820;2023-06-14T03:39:38;24.80;42.30
14142;DHT22;7151;52.246;4.820;2023-06-14T03:42:11;24.80;42.30
14142;DHT22;7151;52.246;4.820;2023-06-14T03:44:37;24.70;42.30
14142;DHT22;7151;52.246;4.820;2023-06-14T03:47:03;24.70;42.30
14142;DHT22;7151;52.246;4.820;2023-06-14T03:49:29;24.70;42.30
14142;DHT22;7151;52.246;4.820;2023-06-14T03:51:56;24.70;42.40
14142;DHT22;7151;52.246;4.820;2023-06-14T03:54:21;24.60;42.40
14142;DHT22;7151;52.246;4.820;2023-06-14T03:56:47;24.60;42.40
14142;DHT22;7151;52.246;4.820;2023-06-14T03:59:13;24.60;42.50
14142;DHT22;7151;52.246;4.820;2023-06-14T04:01:38;24.60;42.60
14142;DHT22;7151;52.246;4.820;2023-06-14T04:04:11;24.60;42.60
14142;DHT22;7151;52.246;4.820;2023-06-14T04:06:37;24.50;42.50
14142;DHT22;7151;52.246;4.820;2023-06-14T04:09:02;24.50;42.60
14142;DHT22;7151;52.246;4.820;2023-06-14T04:11:28;24.50;42.70
14142;DHT22;7151;52.246;4.820;2023-06-14T04:13:53;24.50;42.70
14142;DHT22;7151;52.246;4.820;2023-06-14T04:16:21;24.40;42.70
14142;DHT22;7151;52.246;4.820;2023-06-14T04:18:47;24.40;42.70
14142;DHT22;7151;52.246;4.820;2023-06-14T04:21:13;24.40;42.70
14142;DHT22;7151;52.246;4.820;2023-06-14T04:23:39;24.40;42.80
14142;DHT22;7151;52.246;4.820;2023-06-14T04:26:09;24.40;42.80
14142;DHT22;7151;52.246;4.820;2023-06-14T04:28:36;24.40;42.90
14142;DHT22;7151;52.246;4.820;2023-06-14T04:31:06;24.30;42.90
14142;DHT22;7151;52.246;4.820;2023-06-14T04:33:37;24.30;42.90
14142;DHT22;7151;52.246;4.820;2023-06-14T04:36:12;24.30;43.00
14142;DHT22;7151;52.246;4.820;2023-06-14T04:38:39;24.30;43.00
14142;DHT22;7151;52.246;4.820;2023-06-14T04:41:04;24.30;43.00
14142;DHT22;7151;52.246;4.820;2023-06-14T04:43:31;24.20;43.00
14142;DHT22;7151;52.246;4.820;2023-06-14T04:46:04;24.20;43.10
14142;DHT22;7151;52.246;4.820;2023-06-14T04:48:31;24.20;43.20
14142;DHT22;7151;52.246;4.820;2023-06-14T04:50:57;24.20;43.20
14142;DHT22;7151;52.246;4.820;2023-06-14T04:53:23;24.20;43.20
14142;DHT22;7151;52.246;4.820;2023-06-14T04:55:49;24.20;43.40
14142;DHT22;7151;52.246;4.820;2023-06-14T04:58:15;24.10;43.40
14142;DHT22;7151;52.246;4.820;2023-06-14T05:00:41;24.10;43.50
14142;DHT22;7151;52.246;4.820;2023-06-14T05:03:09;24.10;43.60
14142;DHT22;7151;52.246;4.820;2023-06-14T05:05:34;24.10;43.60
14142;DHT22;7151;52.246;4.820;2023-06-14T05:08:00;24.10;43.60
14142;DHT22;7151;52.246;4.820;2023-06-14T05:10:25;24.10;43.70
14142;DHT22;7151;52.246;4.820;2023-06-14T05:12:51;24.10;43.70
14142;DHT22;7151;52.246;4.820;2023-06-14T05:15:18;24.00;43.70
14142;DHT22;7151;52.246;4.820;2023-06-14T05:17:45;24.00;43.70
14142;DHT22;7151;52.246;4.820;2023-06-14T05:20:13;24.00;43.80
14142;DHT22;7151;52.246;4.820;2023-06-14T05:22:39;24.00;43.70
14142;DHT22;7151;52.246;4.820;2023-06-14T05:25:04;24.00;43.80
14142;DHT22;7151;52.246;4.820;2023-06-14T05:27:30;24.00;43.80
14142;DHT22;7151;52.246;4.820;2023-06-14T05:29:56;24.00;43.90
14142;DHT22;7151;52.246;4.820;2023-06-14T05:32:24;24.00;43.90
14142;DHT22;7151;52.246;4.820;2023-06-14T05:34:49;24.00;44.00
14142;DHT22;7151;52.246;4.820;2023-06-14T05:37:15;24.00;44.00
14142;DHT22;7151;52.246;4.820;2023-06-14T05:39:42;24.00;44.00
14142;DHT22;7151;52.246;4.820;2023-06-14T05:42:08;24.00;44.00
14142;DHT22;7151;52.246;4.820;2023-06-14T05:44:33;24.00;44.00
14142;DHT22;7151;52.246;4.820;2023-06-14T05:46:59;24.00;44.10
14142;DHT22;7151;52.246;4.820;2023-06-14T05:49:25;24.00;44.10
14142;DHT22;7151;52.246;4.820;2023-06-14T05:51:50;24.00;44.20
14142;DHT22;7151;52.246;4.820;2023-06-14T05:54:16;24.00;44.30
14142;DHT22;7151;52.246;4.820;2023-06-14T05:56:42;23.90;44.30
14142;DHT22;7151;52.246;4.820;2023-06-14T05:59:07;24.00;44.50
14142;DHT22;7151;52.246;4.820;2023-06-14T06:01:33;24.00;44.50
14142;DHT22;7151;52.246;4.820;2023-06-14T06:04:02;24.00;44.60
14142;DHT22;7151;52.246;4.820;2023-06-14T06:06:27;24.00;44.60
14142;DHT22;7151;52.246;4.820;2023-06-14T06:08:54;24.00;44.70
14142;DHT22;7151;52.246;4.820;2023-06-14T06:11:19;24.00;44.70
14142;DHT22;7151;52.246;4.820;2023-06-14T06:13:45;24.00;44.70
14142;DHT22;7151;52.246;4.820;2023-06-14T06:16:11;24.00;44.70
14142;DHT22;7151;52.246;4.820;2023-06-14T06:18:36;24.00;44.80
14142;DHT22;7151;52.246;4.820;2023-06-14T06:21:03;24.10;44.90
14142;DHT22;7151;52.246;4.820;2023-06-14T06:23:29;24.10;44.90
14142;DHT22;7151;52.246;4.820;2023-06-14T06:25:55;24.10;44.70
14142;DHT22;7151;52.246;4.820;2023-06-14T06:28:20;24.10;44.70
14142;DHT22;7151;52.246;4.820;2023-06-14T06:30:46;24.20;44.80
14142;DHT22;7151;52.246;4.820;2023-06-14T06:33:12;24.20;44.80
14142;DHT22;7151;52.246;4.820;2023-06-14T06:35:38;24.20;44.80
14142;DHT22;7151;52.246;4.820;2023-06-14T06:38:03;24.20;44.70
14142;DHT22;7151;52.246;4.820;2023-06-14T06:40:29;24.20;44.70
14142;DHT22;7151;52.246;4.820;2023-06-14T06:42:55;24.20;44.80
14142;DHT22;7151;52.246;4.820;2023-06-14T06:45:21;24.20;44.80
14142;DHT22;7151;52.246;4.820;2023-06-14T06:47:46;24.20;44.80
14142;DHT22;7151;52.246;4.820;2023-06-14T06:50:12;24.20;44.90
14142;DHT22;7151;52.246;4.820;2023-06-14T06:52:37;24.20;45.00
14142;DHT22;7151;52.246;4.820;2023-06-14T06:55:03;24.30;45.00
14142;DHT22;7151;52.246;4.820;2023-06-14T06:57:29;24.30;45.10
14142;DHT22;7151;52.246;4.820;2023-06-14T06:59:54;24.30;45.10
14142;DHT22;7151;52.246;4.820;2023-06-14T07:02:20;24.30;45.30
14142;DHT22;7151;52.246;4.820;2023-06-14T07:04:46;24.40;45.40
14142;DHT22;7151;52.246;4.820;2023-06-14T07:07:12;24.40;45.30
14142;DHT22;7151;52.246;4.820;2023-06-14T07:09:37;24.40;45.40
14142;DHT22;7151;52.246;4.820;2023-06-14T07:12:03;24.40;45.40
14142;DHT22;7151;52.246;4.820;2023-06-14T07:14:29;24.50;45.30
14142;DHT22;7151;52.246;4.820;2023-06-14T07:16:55;24.60;45.30
14142;DHT22;7151;52.246;4.820;2023-06-14T07:19:21;24.60;45.30
14142;DHT22;7151;52.246;4.820;2023-06-14T07:21:46;24.60;45.20
14142;DHT22;7151;52.246;4.820;2023-06-14T07:24:13;24.60;45.10
14142;DHT22;7151;52.246;4.820;2023-06-14T07:26:39;24.70;45.00
14142;DHT22;7151;52.246;4.820;2023-06-14T07:29:04;24.70;44.90
14142;DHT22;7151;52.246;4.820;2023-06-14T07:31:30;24.80;44.90
14142;DHT22;7151;52.246;4.820;2023-06-14T07:33:55;24.80;44.70
14142;DHT22;7151;52.246;4.820;2023-06-14T07:36:22;24.80;44.60
14142;DHT22;7151;52.246;4.820;2023-06-14T07:38:47;24.80;44.50
14142;DHT22;7151;52.246;4.820;2023-06-14T07:41:13;24.80;44.40
14142;DHT22;7151;52.246;4.820;2023-06-14T07:43:39;24.90;44.40
14142;DHT22;7151;52.246;4.820;2023-06-14T07:46:04;24.90;44.30
14142;DHT22;7151;52.246;4.820;2023-06-14T07:48:30;24.90;44.30
14142;DHT22;7151;52.246;4.820;2023-06-14T07:50:56;25.00;44.40
14142;DHT22;7151;52.246;4.820;2023-06-14T07:53:21;25.00;44.40
14142;DHT22;7151;52.246;4.820;2023-06-14T07:55:47;25.00;44.40
14142;DHT22;7151;52.246;4.820;2023-06-14T07:58:14;25.10;44.40
14142;DHT22;7151;52.246;4.820;2023-06-14T08:00:39;25.10;44.90
14142;DHT22;7151;52.246;4.820;2023-06-14T08:03:05;25.20;44.40
14142;DHT22;7151;52.246;4.820;2023-06-14T08:05:30;25.20;44.30
14142;DHT22;7151;52.246;4.820;2023-06-14T08:07:56;25.20;44.30
14142;DHT22;7151;52.246;4.820;2023-06-14T08:10:22;25.30;44.10
14142;DHT22;7151;52.246;4.820;2023-06-14T08:12:48;25.30;43.90
14142;DHT22;7151;52.246;4.820;2023-06-14T08:15:15;25.40;44.00
14142;DHT22;7151;52.246;4.820;2023-06-14T08:17:42;25.40;43.80
14142;DHT22;7151;52.246;4.820;2023-06-14T08:20:09;25.50;43.80
14142;DHT22;7151;52.246;4.820;2023-06-14T08:22:36;25.50;43.60
14142;DHT22;7151;52.246;4.820;2023-06-14T08:25:03;25.50;43.60
14142;DHT22;7151;52.246;4.820;2023-06-14T08:27:29;25.60;43.60
14142;DHT22;7151;52.246;4.820;2023-06-14T08:29:55;25.60;43.50
14142;DHT22;7151;52.246;4.820;2023-06-14T08:32:21;25.70;43.50
14142;DHT22;7151;52.246;4.820;2023-06-14T08:34:47;25.70;43.40
14142;DHT22;7151;52.246;4.820;2023-06-14T08:37:13;25.80;43.40
14142;DHT22;7151;52.246;4.820;2023-06-14T08:39:39;25.80;43.40
14142;DHT22;7151;52.246;4.820;2023-06-14T08:42:06;25.80;43.40
14142;DHT22;7151;52.246;4.820;2023-06-14T08:44:33;25.90;43.20
14142;DHT22;7151;52.246;4.820;2023-06-14T08:46:59;26.00;43.10
14142;DHT22;7151;52.246;4.820;2023-06-14T08:49:26;26.00;42.90
14142;DHT22;7151;52.246;4.820;2023-06-14T08:51:59;26.10;42.80
14142;DHT22;7151;52.246;4.820;2023-06-14T08:54:29;26.10;43.10
14142;DHT22;7151;52.246;4.820;2023-06-14T08:57:01;26.20;42.50
14142;DHT22;7151;52.246;4.820;2023-06-14T08:59:28;26.20;42.50
14142;DHT22;7151;52.246;4.820;2023-06-14T09:01:54;26.30;42.30
14142;DHT22;7151;52.246;4.820;2023-06-14T09:04:23;26.30;42.20
14142;DHT22;7151;52.246;4.820;2023-06-14T09:06:55;26.40;42.10
14142;DHT22;7151;52.246;4.820;2023-06-14T09:09:21;26.50;42.10
14142;DHT22;7151;52.246;4.820;2023-06-14T09:11:50;26.50;42.00
14142;DHT22;7151;52.246;4.820;2023-06-14T09:14:17;26.60;41.80
14142;DHT22;7151;52.246;4.820;2023-06-14T09:16:43;26.70;41.60
14142;DHT22;7151;52.246;4.820;2023-06-14T09:19:14;26.70;41.40
14142;DHT22;7151;52.246;4.820;2023-06-14T09:21:47;26.80;41.40
14142;DHT22;7151;52.246;4.820;2023-06-14T09:24:14;26.90;41.40
14142;DHT22;7151;52.246;4.820;2023-06-14T09:26:40;26.90;41.40
14142;DHT22;7151;52.246;4.820;2023-06-14T09:29:06;27.00;41.30
14142;DHT22;7151;52.246;4.820;2023-06-14T09:31:31;27.10;41.20
14142;DHT22;7151;52.246;4.820;2023-06-14T09:33:58;27.10;40.90
14142;DHT22;7151;52.246;4.820;2023-06-14T09:36:27;27.20;40.80
14142;DHT22;7151;52.246;4.820;2023-06-14T09:39:03;27.20;40.70
14142;DHT22;7151;52.246;4.820;2023-06-14T09:41:36;27.30;40.30
14142;DHT22;7151;52.246;4.820;2023-06-14T09:44:03;27.40;40.20
14142;DHT22;7151;52.246;4.820;2023-06-14T09:46:30;27.40;40.00
14142;DHT22;7151;52.246;4.820;2023-06-14T09:48:59;27.50;39.80
14142;DHT22;7151;52.246;4.820;2023-06-14T09:51:25;27.60;39.60
14142;DHT22;7151;52.246;4.820;2023-06-14T09:53:52;27.60;39.20
14142;DHT22;7151;52.246;4.820;2023-06-14T09:58:57;27.70;38.60
14142;DHT22;7151;52.246;4.820;2023-06-14T10:01:24;27.80;38.50
14142;DHT22;7151;52.246;4.820;2023-06-14T10:03:55;27.80;38.50
14142;DHT22;7151;52.246;4.820;2023-06-14T10:06:22;27.90;38.50
14142;DHT22;7151;52.246;4.820;2023-06-14T10:08:52;28.00;38.40
14142;DHT22;7151;52.246;4.820;2023-06-14T10:11:21;28.00;38.20
14142;DHT22;7151;52.246;4.820;2023-06-14T10:13:47;28.00;38.80
14142;DHT22;7151;52.246;4.820;2023-06-14T10:16:20;28.10;38.00
14142;DHT22;7151;52.246;4.820;2023-06-14T10:18:59;28.10;37.70
14142;DHT22;7151;52.246;4.820;2023-06-14T10:21:41;28.20;37.70
14142;DHT22;7151;52.246;4.820;2023-06-14T10:24:13;28.20;37.60
14142;DHT22;7151;52.246;4.820;2023-06-14T10:26:55;28.20;37.30
14142;DHT22;7151;52.246;4.820;2023-06-14T10:29:22;28.30;37.20
14142;DHT22;7151;52.246;4.820;2023-06-14T10:31:49;28.30;37.40
14142;DHT22;7151;52.246;4.820;2023-06-14T10:34:25;28.40;37.40
14142;DHT22;7151;52.246;4.820;2023-06-14T10:39:31;28.50;37.30
14142;DHT22;7151;52.246;4.820;2023-06-14T10:41:58;28.50;37.20
14142;DHT22;7151;52.246;4.820;2023-06-14T10:46:59;28.70;37.10
14142;DHT22;7151;52.246;4.820;2023-06-14T10:52:08;28.80;36.90
14142;DHT22;7151;52.246;4.820;2023-06-14T10:55:05;28.90;37.00
14142;DHT22;7151;52.246;4.820;2023-06-14T10:57:40;28.90;37.40
14142;DHT22;7151;52.246;4.820;2023-06-14T11:00:07;29.00;36.70
14142;DHT22;7151;52.246;4.820;2023-06-14T11:10:42;29.30;36.40
14142;DHT22;7151;52.246;4.820;2023-06-14T11:13:08;29.40;36.60
14142;DHT22;7151;52.246;4.820;2023-06-14T11:15:36;29.40;36.50
14142;DHT22;7151;52.246;4.820;2023-06-14T11:18:04;29.50;36.30
14142;DHT22;7151;52.246;4.820;2023-06-14T11:20:31;29.50;36.30
14142;DHT22;7151;52.246;4.820;2023-06-14T11:22:57;29.60;36.30
14142;DHT22;7151;52.246;4.820;2023-06-14T11:25:22;29.60;36.10
14142;DHT22;7151;52.246;4.820;2023-06-14T11:27:52;29.70;36.60
14142;DHT22;7151;52.246;4.820;2023-06-14T11:30:17;29.70;35.80
14142;DHT22;7151;52.246;4.820;2023-06-14T11:32:46;29.80;35.80
14142;DHT22;7151;52.246;4.820;2023-06-14T11:35:13;29.80;35.70
14142;DHT22;7151;52.246;4.820;2023-06-14T11:37:39;29.90;35.70
14142;DHT22;7151;52.246;4.820;2023-06-14T11:40:07;29.90;35.40
14142;DHT22;7151;52.246;4.820;2023-06-14T11:42:34;29.90;35.40
14142;DHT22;7151;52.246;4.820;2023-06-14T11:45:00;30.00;35.90
14142;DHT22;7151;52.246;4.820;2023-06-14T11:47:38;30.00;35.20
14142;DHT22;7151;52.246;4.820;2023-06-14T11:50:06;30.10;35.20
14142;DHT22;7151;52.246;4.820;2023-06-14T11:52:32;30.10;35.10
14142;DHT22;7151;52.246;4.820;2023-06-14T11:54:58;30.10;34.90
14142;DHT22;7151;52.246;4.820;2023-06-14T11:57:24;30.20;35.00
14142;DHT22;7151;52.246;4.820;2023-06-14T11:59:51;30.30;35.20
14142;DHT22;7151;52.246;4.820;2023-06-14T12:02:17;30.30;35.10
14142;DHT22;7151;52.246;4.820;2023-06-14T12:04:43;30.40;35.20
14142;DHT22;7151;52.246;4.820;2023-06-14T12:07:14;30.50;35.00
14142;DHT22;7151;52.246;4.820;2023-06-14T12:12:17;30.60;34.90
14142;DHT22;7151;52.246;4.820;2023-06-14T12:14:42;30.80;34.90
14142;DHT22;7151;52.246;4.820;2023-06-14T12:17:08;30.80;34.80
14142;DHT22;7151;52.246;4.820;2023-06-14T12:19:41;30.90;34.60
14142;DHT22;7151;52.246;4.820;2023-06-14T12:22:10;31.00;34.30
14142;DHT22;7151;52.246;4.820;2023-06-14T12:24:35;31.10;34.30
14142;DHT22;7151;52.246;4.820;2023-06-14T12:27:01;31.10;34.10
14142;DHT22;7151;52.246;4.820;2023-06-14T12:29:30;31.20;33.90
14142;DHT22;7151;52.246;4.820;2023-06-14T12:31:55;31.30;33.80
14142;DHT22;7151;52.246;4.820;2023-06-14T12:34:26;31.30;33.50
14142;DHT22;7151;52.246;4.820;2023-06-14T12:36:53;31.30;33.10
14142;DHT22;7151;52.246;4.820;2023-06-14T12:39:19;31.40;33.40
14142;DHT22;7151;52.246;4.820;2023-06-14T12:41:44;31.50;33.30
14142;DHT22;7151;52.246;4.820;2023-06-14T12:44:11;31.50;33.20
14142;DHT22;7151;52.246;4.820;2023-06-14T12:46:37;31.60;33.10
14142;DHT22;7151;52.246;4.820;2023-06-14T12:49:05;31.70;33.10
14142;DHT22;7151;52.246;4.820;2023-06-14T12:51:30;31.70;32.90
14142;DHT22;7151;52.246;4.820;2023-06-14T12:53:56;31.80;32.70
14142;DHT22;7151;52.246;4.820;2023-06-14T12:56:22;31.80;32.60
14142;DHT22;7151;52.246;4.820;2023-06-14T12:58:47;31.90;32.80
14142;DHT22;7151;52.246;4.820;2023-06-14T13:01:13;31.90;32.90
14142;DHT22;7151;52.246;4.820;2023-06-14T13:03:38;32.00;33.00
14142;DHT22;7151;52.246;4.820;2023-06-14T13:06:04;32.10;32.80
14142;DHT22;7151;52.246;4.820;2023-06-14T13:08:30;32.20;32.60
14142;DHT22;7151;52.246;4.820;2023-06-14T13:10:56;32.20;32.50
14142;DHT22;7151;52.246;4.820;2023-06-14T13:13:23;32.30;32.50
14142;DHT22;7151;52.246;4.820;2023-06-14T13:15:49;32.40;32.50
14142;DHT22;7151;52.246;4.820;2023-06-14T13:18:15;32.40;32.50
14142;DHT22;7151;52.246;4.820;2023-06-14T13:20:41;32.50;32.30
14142;DHT22;7151;52.246;4.820;2023-06-14T13:23:07;32.50;32.00
14142;DHT22;7151;52.246;4.820;2023-06-14T13:25:34;32.60;32.00
14142;DHT22;7151;52.246;4.820;2023-06-14T13:27:59;32.70;32.30
14142;DHT22;7151;52.246;4.820;2023-06-14T13:30:25;32.70;31.60
14142;DHT22;7151;52.246;4.820;2023-06-14T13:32:51;32.70;31.50
14142;DHT22;7151;52.246;4.820;2023-06-14T13:35:18;32.80;31.40
14142;DHT22;7151;52.246;4.820;2023-06-14T13:37:44;32.80;31.40
14142;DHT22;7151;52.246;4.820;2023-06-14T13:40:10;32.90;31.30
14142;DHT22;7151;52.246;4.820;2023-06-14T13:42:36;32.90;31.20
14142;DHT22;7151;52.246;4.820;2023-06-14T13:45:03;33.00;31.10
14142;DHT22;7151;52.246;4.820;2023-06-14T13:47:29;33.00;31.00
14142;DHT22;7151;52.246;4.820;2023-06-14T13:49:55;33.20;31.00
14142;DHT22;7151;52.246;4.820;2023-06-14T13:52:21;33.20;30.70
14142;DHT22;7151;52.246;4.820;2023-06-14T13:54:46;33.20;30.60
14142;DHT22;7151;52.246;4.820;2023-06-14T13:57:12;33.30;30.50
14142;DHT22;7151;52.246;4.820;2023-06-14T13:59:38;33.30;30.40
14142;DHT22;7151;52.246;4.820;2023-06-14T14:02:05;33.40;30.40
14142;DHT22;7151;52.246;4.820;2023-06-14T14:04:31;33.50;30.30
14142;DHT22;7151;52.246;4.820;2023-06-14T14:06:57;33.50;30.20
14142;DHT22;7151;52.246;4.820;2023-06-14T14:09:22;33.60;30.00
14142;DHT22;7151;52.246;4.820;2023-06-14T14:11:48;33.70;29.90
14142;DHT22;7151;52.246;4.820;2023-06-14T14:14:14;33.70;29.80
14142;DHT22;7151;52.246;4.820;2023-06-14T14:16:40;33.70;29.80
14142;DHT22;7151;52.246;4.820;2023-06-14T14:19:07;33.80;29.70
14142;DHT22;7151;52.246;4.820;2023-06-14T14:21:32;33.90;29.70
14142;DHT22;7151;52.246;4.820;2023-06-14T14:23:58;33.90;29.40
14142;DHT22;7151;52.246;4.820;2023-06-14T14:26:24;33.90;29.30
14142;DHT22;7151;52.246;4.820;2023-06-14T14:28:51;34.00;29.40
14142;DHT22;7151;52.246;4.820;2023-06-14T14:31:17;34.00;29.40
14142;DHT22;7151;52.246;4.820;2023-06-14T14:33:43;34.10;29.40
14142;DHT22;7151;52.246;4.820;2023-06-14T14:36:09;34.20;29.30
14142;DHT22;7151;52.246;4.820;2023-06-14T14:38:34;34.30;29.20
14142;DHT22;7151;52.246;4.820;2023-06-14T14:41:00;34.30;29.10
14142;DHT22;7151;52.246;4.820;2023-06-14T14:43:26;34.40;29.10
14142;DHT22;7151;52.246;4.820;2023-06-14T14:45:52;34.50;29.10
14142;DHT22;7151;52.246;4.820;2023-06-14T14:48:18;34.50;29.10
14142;DHT22;7151;52.246;4.820;2023-06-14T14:50:43;34.60;29.00
14142;DHT22;7151;52.246;4.820;2023-06-14T14:53:09;34.60;28.90
14142;DHT22;7151;52.246;4.820;2023-06-14T14:55:35;34.70;28.90
14142;DHT22;7151;52.246;4.820;2023-06-14T14:58:02;34.70;28.80
14142;DHT22;7151;52.246;4.820;2023-06-14T15:00:28;34.80;28.90
14142;DHT22;7151;52.246;4.820;2023-06-14T15:02:54;34.90;28.90
14142;DHT22;7151;52.246;4.820;2023-06-14T15:05:20;34.90;28.70
14142;DHT22;7151;52.246;4.820;2023-06-14T15:07:46;35.00;28.70
14142;DHT22;7151;52.246;4.820;2023-06-14T15:10:11;35.00;28.60
14142;DHT22;7151;52.246;4.820;2023-06-14T15:12:37;35.00;28.70
14142;DHT22;7151;52.246;4.820;2023-06-14T15:15:03;35.20;28.60
14142;DHT22;7151;52.246;4.820;2023-06-14T15:17:29;35.20;28.40
14142;DHT22;7151;52.246;4.820;2023-06-14T15:19:55;35.30;28.40
14142;DHT22;7151;52.246;4.820;2023-06-14T15:22:21;35.30;28.30
14142;DHT22;7151;52.246;4.820;2023-06-14T15:24:46;35.30;28.30
14142;DHT22;7151;52.246;4.820;2023-06-14T15:27:12;35.40;28.30
14142;DHT22;7151;52.246;4.820;2023-06-14T15:29:40;35.40;28.30
14142;DHT22;7151;52.246;4.820;2023-06-14T15:32:06;35.50;28.40
14142;DHT22;7151;52.246;4.820;2023-06-14T15:34:32;35.50;28.30
14142;DHT22;7151;52.246;4.820;2023-06-14T15:36:58;35.50;28.20
14142;DHT22;7151;52.246;4.820;2023-06-14T15:39:23;35.50;28.20
14142;DHT22;7151;52.246;4.820;2023-06-14T15:41:50;35.50;28.20
14142;DHT22;7151;52.246;4.820;2023-06-14T15:44:17;35.50;28.10
14142;DHT22;7151;52.246;4.820;2023-06-14T15:46:43;35.50;28.10
14142;DHT22;7151;52.246;4.820;2023-06-14T15:49:10;35.50;28.00
14142;DHT22;7151;52.246;4.820;2023-06-14T15:51:36;35.40;27.90
14142;DHT22;7151;52.246;4.820;2023-06-14T15:54:02;35.40;27.80
14142;DHT22;7151;52.246;4.820;2023-06-14T15:56:27;35.30;27.80
14142;DHT22;7151;52.246;4.820;2023-06-14T15:58:53;35.30;27.90
14142;DHT22;7151;52.246;4.820;2023-06-14T16:01:18;35.30;28.00
14142;DHT22;7151;52.246;4.820;2023-06-14T16:03:44;35.20;27.80
14142;DHT22;7151;52.246;4.820;2023-06-14T16:06:10;35.10;27.70
14142;DHT22;7151;52.246;4.820;2023-06-14T16:08:35;35.00;27.80